Chelan, WA

5:31 PM PST en Diciembre 18, 2014 (GMT -0800)
The Highlands | Change Station
CLOSE
Current Station
Estación meteorológica personal
Location: Chelan, WA
Altura: 1610 ft
Estaciones meteorológicas cercanas
Aviso en curso: Air Stagnation Advisory

Alt 1610 ft 47.86 °N, 120.04 °W | Updated 10 minutes ago

Nublado
Nublado
37.3 ° F
Sensación térmica 37 ° F
N
0.0
Viento Variable Viento desde ESE
Gusts 2.0 mph

Hoy
Alta -- | Baja -- ° F
--% Posibilidad de precipitaciones
Ayer
Alta -- | Baja -- ° F
Precip. -- pul
7:44 AM 4:08 PM
Creciente menguante, 11% visible
Presión 29.95 pul
Visibilidad 3.0 Millas
Nubes Nublado 1100 ft
Vientos helados 37 ° F
Punto de rocío 35 ° F
Humedad 92%
Precipitaciones 0.05 pul
Espesor de la nieve No disponible.
UV 0 de una escala de 12
Polen .50 de una escala de 12
Calidad del aire No disponible.
Flu Activity No disponible.
SPECI KEAT 190124Z AUTO 00000KT 3SM BR OVC011 04/02 A2995 RMK AO2 T00390022

More Conditions Fewer Conditions

Presión 29.95 pul
Visibilidad 3.0 Millas
Nubes Nublado 1100 ft
Vientos helados 37 ° F
Punto de rocío 35 ° F
Humedad 92%
Precipitaciones 0.05 pul
Espesor de la nieve No disponible.
UV 0 de una escala de 12
Polen .50 de una escala de 12
Calidad del aire No disponible.
Flu Activity No disponible.
SPECI KEAT 190124Z AUTO 00000KT 3SM BR OVC011 04/02 A2995 RMK AO2 T00390022

More Conditions Fewer Conditions

10-Day Weather Forecast

Almanac

Astronomía

Dec. 18, 2014 Salida Puesta
Hora real
Crepúsculo civil
Crepúsculo náutico
Crepúsculo astronómico
Luna
Horas de luz
Horas de luz
Tomorrow will be .
, % of the Moon is Illuminated

Extremos de hoy

Máximos del estado Bajos del estado

Community

WunderPhotos

Upload Photos

1,779,032 ¡fotos cargadas!

WunderBlogs® & News

Nearby

Calidad del aire

  Calidad del aire Índice AQ Contaminante
Not available.

Grosos de nieve

Estación Profundido Altura

Actividad de terremotos

Ciudad Distance Mag. Tiempo y dato
Magnitud mínima muestra es 2,5.

Temperaturas de aguas costeras

Lugar Temperatura

Estaciones meteorológicas cercanas